Time;durP1;ratioP1;P1;durP2;ratioP2;P2;SDS_P1;SDS_P2;PMS_P1;PMS_P2;Temp;Humidity;BMP_temperature;BMP_pressure;BME280_temperature;BME280_humidity;BME280_pressure;Samples;Min_cycle;Max_cycle;Signal;HPM_P1;HPM_P2
2021/09/25 00:00:26;;;;;;;9.10;7.40;;;;;;;14.22;48.75;95396.81;5006461;28;20454;-66
2021/09/25 00:02:54;;;;;;;13.17;7.60;;;;;;;14.56;48.35;95389.13;5001804;28;20491;-71
2021/09/25 00:05:24;;;;;;;12.43;7.03;;;;;;;14.72;48.09;95380.13;5010061;28;20799;-68
2021/09/25 00:07:50;;;;;;;12.23;7.30;;;;;;;14.71;47.88;95381.16;5009848;28;20958;-69
2021/09/25 00:10:17;;;;;;;11.03;7.10;;;;;;;14.32;48.94;95384.69;5010548;28;20963;-68
2021/09/25 00:12:44;;;;;;;12.97;7.00;;;;;;;14.59;48.09;95383.31;5010089;28;20445;-69
2021/09/25 00:15:12;;;;;;;12.20;6.93;;;;;;;14.68;48.21;95373.00;5010338;28;20459;-67
2021/09/25 00:17:39;;;;;;;9.90;6.97;;;;;;;14.30;48.73;95379.69;5013807;28;20447;-70
2021/09/25 00:20:07;;;;;;;12.33;6.87;;;;;;;14.54;48.91;95385.97;5020525;28;20448;-67
2021/09/25 00:22:35;;;;;;;9.60;7.27;;;;;;;14.28;49.73;95387.06;5009491;28;21010;-68
2021/09/25 00:25:02;;;;;;;8.93;6.03;;;;;;;14.52;48.97;95393.38;5018743;28;20790;-71
2021/09/25 00:27:29;;;;;;;12.43;7.03;;;;;;;14.50;48.94;95390.19;5028825;28;20440;-68
2021/09/25 00:30:04;;;;;;;8.67;6.27;;;;;;;14.05;49.65;95377.84;5010574;28;20826;-68
2021/09/25 00:32:31;;;;;;;8.43;6.53;;;;;;;14.33;49.19;95384.44;5009924;28;21038;-69
2021/09/25 00:34:59;;;;;;;10.43;6.97;;;;;;;13.57;51.49;95382.84;5010291;28;20448;-67
2021/09/25 00:37:25;;;;;;;11.27;6.87;;;;;;;13.90;50.78;95369.16;5009615;28;20821;-70
2021/09/25 00:39:52;;;;;;;13.23;6.27;;;;;;;14.14;50.47;95386.00;5010257;28;20463;-69
2021/09/25 00:42:19;;;;;;;12.47;7.07;;;;;;;14.11;50.58;95392.59;5009793;28;20873;-68
2021/09/25 00:44:46;;;;;;;12.87;6.73;;;;;;;13.87;51.15;95390.75;5009930;28;21040;-70
2021/09/25 00:47:13;;;;;;;15.27;7.47;;;;;;;14.02;50.78;95388.13;5009501;28;20975;-70
2021/09/25 00:49:40;;;;;;;10.30;6.70;;;;;;;14.23;50.80;95384.41;5010064;28;20452;-70
2021/09/25 00:52:07;;;;;;;9.97;6.67;;;;;;;14.25;50.68;95388.34;5009531;28;20984;-71
2021/09/25 00:54:34;;;;;;;9.70;6.50;;;;;;;14.37;50.65;95389.94;5009979;28;20464;-69
2021/09/25 00:57:02;;;;;;;12.63;6.70;;;;;;;14.11;50.99;95391.78;5009750;28;20468;-69
2021/09/25 00:59:29;;;;;;;12.60;6.57;;;;;;;14.17;50.41;95390.75;5010262;28;20444;-68
2021/09/25 01:01:56;;;;;;;10.87;6.53;;;;;;;14.20;50.72;95398.13;4994807;28;20473;-67
2021/09/25 01:04:23;;;;;;;8.33;6.17;;;;;;;14.13;50.79;95390.50;5008659;28;20979;-71
2021/09/25 01:06:50;;;;;;;11.37;6.53;;;;;;;14.01;50.61;95392.59;5026405;28;20542;-69
2021/09/25 01:09:17;;;;;;;9.63;6.30;;;;;;;14.02;50.30;95388.13;5018895;28;20437;-67
2021/09/25 01:11:44;;;;;;;12.03;5.97;;;;;;;14.13;49.86;95397.59;5015780;28;21036;-71
2021/09/25 01:14:11;;;;;;;10.60;6.60;;;;;;;13.61;51.57;95391.78;5014148;28;20440;-67
2021/09/25 01:16:38;;;;;;;9.67;6.00;;;;;;;13.85;51.24;95404.19;5013682;28;20437;-69
2021/09/25 01:19:05;;;;;;;9.23;6.63;;;;;;;13.40;52.49;95396.22;5013292;28;20436;-70
2021/09/25 01:21:32;;;;;;;9.37;6.30;;;;;;;13.54;52.92;95413.09;5012780;28;20472;-72
2021/09/25 01:23:59;;;;;;;11.60;6.87;;;;;;;13.55;52.08;95377.03;5014213;28;21009;-71
2021/09/25 01:26:26;;;;;;;9.10;6.00;;;;;;;13.83;51.67;95389.72;4999891;28;20468;-66
2021/09/25 01:28:53;;;;;;;10.27;6.47;;;;;;;13.81;51.62;95386.53;5013714;28;20448;-70
2021/09/25 01:31:21;;;;;;;10.17;6.50;;;;;;;13.75;51.76;95403.38;5012998;28;20527;-69
2021/09/25 01:33:51;;;;;;;9.83;6.13;;;;;;;13.84;51.68;95412.34;5013496;28;20511;-68
2021/09/25 01:36:18;;;;;;;8.97;6.50;;;;;;;13.87;52.07;95406.53;5012602;28;20444;-69
2021/09/25 01:38:46;;;;;;;11.20;6.43;;;;;;;13.82;52.10;95410.00;5013429;28;20892;-70
2021/09/25 01:41:13;;;;;;;12.33;6.50;;;;;;;13.83;51.68;95406.28;5012557;28;20448;-68
2021/09/25 01:43:40;;;;;;;10.53;6.27;;;;;;;13.75;52.12;95398.13;5013207;28;20444;-69
2021/09/25 01:46:07;;;;;;;9.87;6.60;;;;;;;13.87;52.53;95407.34;5012812;28;20448;-70
2021/09/25 01:48:34;;;;;;;10.33;6.60;;;;;;;13.83;52.00;95416.81;5013370;28;20481;-70
2021/09/25 01:51:01;;;;;;;8.40;6.10;;;;;;;13.81;52.32;95418.16;5012374;28;20474;-68
2021/09/25 01:53:28;;;;;;;11.47;6.20;;;;;;;13.75;52.38;95413.94;5026741;28;20518;-70
2021/09/25 01:55:55;;;;;;;9.17;6.50;;;;;;;12.52;56.67;95422.69;5012755;28;20519;-69
2021/09/25 01:58:22;;;;;;;10.27;6.60;;;;;;;13.03;55.56;95425.31;5012252;28;20464;-71
2021/09/25 02:00:49;;;;;;;13.03;7.07;;;;;;;12.92;55.63;95421.03;5013214;28;20445;-72
2021/09/25 02:03:16;;;;;;;8.97;6.63;;;;;;;13.23;55.02;95428.03;5011850;28;20483;-70
2021/09/25 02:05:43;;;;;;;11.97;6.73;;;;;;;13.36;54.05;95420.72;5012591;28;20441;-68
2021/09/25 02:08:09;;;;;;;13.03;6.33;;;;;;;13.32;54.34;95422.28;5012302;28;20449;-68
2021/09/25 02:10:36;;;;;;;11.00;6.90;;;;;;;13.41;54.69;95428.63;5012713;28;20456;-67
2021/09/25 02:13:05;;;;;;;8.97;6.60;;;;;;;13.34;54.94;95430.72;5011130;28;20543;-67
2021/09/25 02:15:34;;;;;;;12.40;7.10;;;;;;;12.74;56.66;95429.38;4998298;28;20460;-70
2021/09/25 02:18:02;;;;;;;12.33;6.90;;;;;;;12.95;56.15;95432.91;4999155;28;20445;-68
2021/09/25 02:20:29;;;;;;;10.43;7.03;;;;;;;12.86;56.31;95432.59;4999706;28;20453;-66
2021/09/25 02:22:56;;;;;;;11.57;7.03;;;;;;;12.67;57.10;95439.31;4997431;28;20499;-69
2021/09/25 02:25:22;;;;;;;10.80;6.47;;;;;;;12.59;56.93;95442.44;5001320;28;20442;-69
2021/09/25 02:27:51;;;;;;;10.17;6.63;;;;;;;12.50;56.77;95438.69;5006235;28;20445;-69
2021/09/25 02:30:19;;;;;;;11.03;6.70;;;;;;;12.73;56.23;95435.69;5002410;28;20437;-71
2021/09/25 02:32:46;;;;;;;11.83;7.00;;;;;;;12.73;56.20;95435.69;4997831;28;20990;-70
2021/09/25 02:35:15;;;;;;;10.40;6.47;;;;;;;12.77;55.48;95443.84;5012184;28;20461;-71
2021/09/25 02:37:42;;;;;;;11.90;7.13;;;;;;;12.76;56.14;95447.53;4998587;28;20549;-69
2021/09/25 02:40:11;;;;;;;11.60;6.80;;;;;;;12.86;56.02;95443.13;5005642;28;20596;-71
2021/09/25 02:42:38;;;;;;;10.50;6.20;;;;;;;12.91;56.38;95445.78;5005289;28;20890;-72
2021/09/25 02:45:07;;;;;;;14.17;7.33;;;;;;;13.00;55.93;95457.38;5012237;28;20441;-66
2021/09/25 02:47:34;;;;;;;10.93;7.10;;;;;;;13.04;55.77;95455.88;5012701;28;20824;-69
2021/09/25 02:50:01;;;;;;;8.33;6.83;;;;;;;13.05;55.83;95457.44;5009138;28;20446;-69
2021/09/25 02:52:28;;;;;;;9.23;6.80;;;;;;;12.71;55.24;95414.13;5002905;28;20445;-68
2021/09/25 02:54:55;;;;;;;11.90;7.73;;;;;;;13.02;56.19;95463.22;5013547;28;20443;-68
2021/09/25 02:57:22;;;;;;;15.00;7.17;;;;;;;13.05;55.84;95470.59;5009576;28;20474;-69
2021/09/25 02:59:49;;;;;;;13.00;7.10;;;;;;;13.05;55.90;95482.94;4995322;28;20536;-70
2021/09/25 03:02:15;;;;;;;15.10;6.97;;;;;;;12.99;56.02;95471.56;5002474;28;20491;-67
2021/09/25 03:04:42;;;;;;;10.67;7.00;;;;;;;13.05;55.43;95467.97;5013887;28;20503;-70
2021/09/25 03:07:09;;;;;;;10.30;7.73;;;;;;;12.99;55.33;95458.41;5025133;28;20838;-71
2021/09/25 03:09:36;;;;;;;11.00;7.00;;;;;;;13.10;55.26;95481.13;5012205;28;20503;-70
2021/09/25 03:12:03;;;;;;;16.03;7.40;;;;;;;13.05;55.93;95490.84;5012051;28;20441;-69
2021/09/25 03:14:30;;;;;;;11.70;7.70;;;;;;;13.07;55.57;95486.91;5011315;28;20445;-70
2021/09/25 03:16:57;;;;;;;9.87;7.30;;;;;;;12.86;55.68;95485.22;5011188;28;20447;-71
2021/09/25 03:19:24;;;;;;;11.93;7.20;;;;;;;13.06;55.38;95490.56;5011382;28;20445;-71
2021/09/25 03:21:51;;;;;;;9.40;6.80;;;;;;;13.02;55.79;95499.22;5010954;28;20483;-70
2021/09/25 03:24:17;;;;;;;11.77;7.53;;;;;;;12.86;56.38;95506.25;5010879;28;20436;-71
2021/09/25 03:26:44;;;;;;;10.53;7.60;;;;;;;12.80;56.20;95496.72;5010793;28;20460;-68
2021/09/25 03:29:11;;;;;;;12.57;6.77;;;;;;;12.74;56.06;95508.25;5011112;28;20452;-68
2021/09/25 03:31:38;;;;;;;12.53;7.23;;;;;;;12.54;56.33;95515.22;5010872;28;21005;-68
2021/09/25 03:34:06;;;;;;;13.47;7.40;;;;;;;12.54;56.19;95508.13;5011324;28;20448;-70
2021/09/25 03:36:33;;;;;;;12.03;7.80;;;;;;;12.43;56.05;95480.19;5010600;28;20771;-69
2021/09/25 03:39:00;;;;;;;17.10;8.07;;;;;;;12.63;56.21;95511.06;5011439;28;20453;-70
2021/09/25 03:41:27;;;;;;;13.53;7.47;;;;;;;12.28;56.81;95508.19;5010573;28;20563;-71
2021/09/25 03:43:54;;;;;;;14.80;7.47;;;;;;;11.86;58.90;95515.97;5011414;28;20487;-69
2021/09/25 03:46:21;;;;;;;13.33;7.03;;;;;;;12.20;57.88;95518.13;5010287;28;20463;-71
2021/09/25 03:48:48;;;;;;;15.10;7.20;;;;;;;12.26;56.67;95505.81;5010864;28;20449;-69
2021/09/25 03:51:14;;;;;;;13.90;7.20;;;;;;;12.35;57.54;95525.34;5010204;28;20455;-70
2021/09/25 03:53:41;;;;;;;11.73;7.23;;;;;;;12.45;57.00;95520.16;5011325;28;20448;-70
2021/09/25 03:56:08;;;;;;;13.70;7.43;;;;;;;12.37;57.06;95528.47;5010627;28;20507;-71
2021/09/25 03:58:39;;;;;;;11.80;6.53;;;;;;;12.49;56.68;95526.50;5010152;28;20477;-70
2021/09/25 04:01:07;;;;;;;12.73;6.67;;;;;;;12.07;57.21;95492.25;5010214;28;20445;-69
2021/09/25 04:03:35;;;;;;;11.33;7.33;;;;;;;12.34;57.10;95523.72;5010369;28;21025;-71
2021/09/25 04:06:02;;;;;;;14.63;7.07;;;;;;;12.54;56.77;95534.41;5010599;28;20445;-68
2021/09/25 04:08:32;;;;;;;12.47;6.87;;;;;;;12.58;57.14;95542.59;5010264;28;20481;-71
2021/09/25 04:10:59;;;;;;;13.47;7.10;;;;;;;12.52;56.97;95541.75;5009652;28;21004;-70
2021/09/25 04:13:26;;;;;;;15.47;7.70;;;;;;;12.44;56.80;95549.31;5010731;28;20448;-69
2021/09/25 04:15:53;;;;;;;16.90;7.33;;;;;;;12.50;56.42;95535.19;5010346;28;20441;-70
2021/09/25 04:18:20;;;;;;;11.23;7.27;;;;;;;12.42;56.79;95551.41;5010587;28;20444;-69
2021/09/25 04:20:47;;;;;;;7.67;6.17;;;;;;;12.46;56.83;95542.78;5010003;28;20821;-71
2021/09/25 04:23:14;;;;;;;12.07;7.13;;;;;;;11.60;59.56;95558.69;5010278;28;20480;-71
2021/09/25 04:25:40;;;;;;;15.63;7.60;;;;;;;11.51;60.78;95562.78;5010588;28;20445;-71
2021/09/25 04:28:10;;;;;;;12.00;7.00;;;;;;;11.89;59.44;95567.97;5010168;28;20971;-71
2021/09/25 04:30:40;;;;;;;13.00;6.73;;;;;;;12.09;59.16;95566.34;5008935;28;20456;-70
2021/09/25 04:33:09;;;;;;;14.77;7.80;;;;;;;12.18;58.32;95566.69;5009933;28;20456;-69
2021/09/25 04:35:38;;;;;;;11.23;7.00;;;;;;;11.73;59.40;95574.09;5009584;28;20452;-70
2021/09/25 04:38:05;;;;;;;12.30;7.27;;;;;;;12.03;58.72;95575.22;5009914;28;20819;-69
2021/09/25 04:40:32;;;;;;;13.53;7.60;;;;;;;12.31;57.67;95581.25;5010266;28;20816;-69
2021/09/25 04:43:01;;;;;;;16.30;7.07;;;;;;;12.33;57.86;95573.91;5011833;28;21020;-70
2021/09/25 04:45:28;;;;;;;17.93;7.17;;;;;;;12.35;57.84;95588.41;5014188;28;21037;-69
2021/09/25 04:47:56;;;;;;;18.60;7.67;;;;;;;12.09;58.27;95595.25;5027330;28;20993;-70
2021/09/25 04:50:27;;;;;;;13.13;7.40;;;;;;;12.23;58.03;95574.63;5014095;28;20478;-71
2021/09/25 04:53:07;;;;;;;11.53;8.10;;;;;;;11.74;59.29;95576.47;5010678;28;20809;-70
2021/09/25 04:55:34;;;;;;;14.83;7.17;;;;;;;11.95;58.36;95572.25;5010088;28;20992;-70
2021/09/25 04:58:01;;;;;;;14.93;7.70;;;;;;;11.89;59.01;95594.22;5023225;28;20475;-70
2021/09/25 05:00:28;;;;;;;12.50;7.57;;;;;;;12.19;58.48;95599.78;5005412;28;20452;-71
2021/09/25 05:02:56;;;;;;;19.47;8.43;;;;;;;12.36;58.42;95594.44;5001687;28;20522;-71
2021/09/25 05:05:24;;;;;;;13.17;7.43;;;;;;;12.51;57.73;95592.75;5009807;28;20812;-71
2021/09/25 05:07:51;;;;;;;15.13;7.13;;;;;;;12.71;57.91;95610.53;5009736;28;20437;-71
2021/09/25 05:10:18;;;;;;;14.77;8.10;;;;;;;12.62;57.98;95604.13;5009759;28;20463;-73
2021/09/25 05:12:45;;;;;;;14.20;7.73;;;;;;;12.49;59.28;95615.88;5023783;28;20465;-71
2021/09/25 05:15:13;;;;;;;16.30;7.90;;;;;;;12.64;58.85;95608.13;5010026;28;20459;-67
2021/09/25 05:17:40;;;;;;;17.33;7.70;;;;;;;12.81;57.62;95608.75;5009233;28;20955;-68
2021/09/25 05:20:09;;;;;;;16.33;8.17;;;;;;;12.92;57.53;95617.53;5009607;28;20475;-67
2021/09/25 05:22:36;;;;;;;13.03;7.70;;;;;;;12.79;57.45;95616.09;5009377;28;20475;-70
2021/09/25 05:25:05;;;;;;;13.47;7.87;;;;;;;12.98;57.31;95617.31;5010150;28;20551;-68
2021/09/25 05:27:33;;;;;;;14.93;8.30;;;;;;;13.09;56.65;95615.56;5009412;28;20445;-68
2021/09/25 05:30:00;;;;;;;13.43;7.93;;;;;;;13.17;57.17;95618.53;5009462;28;20950;-71
2021/09/25 05:32:27;;;;;;;16.07;8.23;;;;;;;13.33;57.01;95613.34;5010066;28;20441;-71
2021/09/25 05:34:54;;;;;;;12.80;7.17;;;;;;;13.40;56.98;95611.28;5009780;28;20451;-69
2021/09/25 05:37:21;;;;;;;16.47;8.43;;;;;;;13.50;56.77;95619.25;5021146;28;20444;-69
2021/09/25 05:39:53;;;;;;;15.27;8.33;;;;;;;13.49;56.10;95628.19;5015586;28;20440;-71
2021/09/25 05:42:25;;;;;;;17.27;8.93;;;;;;;13.55;55.55;95635.88;5018003;28;20481;-70
2021/09/25 05:44:54;;;;;;;15.47;8.90;;;;;;;13.74;54.42;95644.13;5009439;28;20451;-70
2021/09/25 05:47:22;;;;;;;15.37;8.67;;;;;;;13.90;54.38;95632.63;5020501;28;20455;-69
2021/09/25 05:49:49;;;;;;;20.47;9.47;;;;;;;13.61;55.55;95637.47;5016369;28;20824;-66
2021/09/25 05:52:17;;;;;;;20.80;8.83;;;;;;;13.61;55.74;95644.59;5013067;28;20448;-71
2021/09/25 05:54:44;;;;;;;12.63;8.10;;;;;;;13.72;54.85;95646.22;5026753;28;20960;-67
2021/09/25 05:57:12;;;;;;;16.30;8.40;;;;;;;13.98;53.98;95661.88;5012663;28;20472;-72
2021/09/25 05:59:38;;;;;;;15.13;8.63;;;;;;;13.93;53.19;95658.44;5013106;28;20447;-70
2021/09/25 06:02:05;;;;;;;15.13;8.37;;;;;;;14.16;53.80;95664.06;5007463;28;20468;-71
2021/09/25 06:04:33;;;;;;;11.80;7.50;;;;;;;14.30;53.15;95661.78;4993685;28;20489;-71
2021/09/25 06:07:03;;;;;;;16.23;8.03;;;;;;;14.37;54.46;95659.69;5006479;28;20974;-69
2021/09/25 06:09:35;;;;;;;15.43;8.70;;;;;;;14.42;53.79;95664.16;5012345;28;20890;-69
2021/09/25 06:12:02;;;;;;;19.07;7.93;;;;;;;14.43;52.45;95660.47;5012675;28;20451;-69
2021/09/25 06:14:29;;;;;;;16.50;8.53;;;;;;;14.71;52.52;95660.00;5012564;28;20443;-71
2021/09/25 06:16:56;;;;;;;13.43;8.60;;;;;;;14.83;51.13;95658.72;5024104;28;20448;-72
2021/09/25 06:19:23;;;;;;;13.37;7.90;;;;;;;14.88;51.86;95657.91;5014360;28;20547;-70
2021/09/25 06:21:49;;;;;;;14.50;8.53;;;;;;;14.88;51.17;95661.34;5022375;28;20444;-69
2021/09/25 06:24:16;;;;;;;16.80;8.60;;;;;;;15.04;50.89;95665.56;5016151;28;20485;-71
2021/09/25 06:26:43;;;;;;;13.10;7.83;;;;;;;14.84;49.76;95668.19;5012053;28;20441;-68
2021/09/25 06:29:11;;;;;;;18.67;8.57;;;;;;;15.08;50.00;95666.63;5012688;28;20547;-69
2021/09/25 06:31:38;;;;;;;14.50;8.47;;;;;;;15.23;49.60;95674.56;5028110;28;20441;-66
2021/09/25 06:34:05;;;;;;;14.23;9.23;;;;;;;15.23;49.84;95677.19;5016837;28;20528;-67
2021/09/25 06:36:33;;;;;;;14.13;8.13;;;;;;;15.47;50.56;95674.03;5016514;28;20441;-71
2021/09/25 06:39:01;;;;;;;17.87;9.13;;;;;;;15.42;48.77;95660.81;5015237;28;20452;-65
2021/09/25 06:41:28;;;;;;;11.33;7.90;;;;;;;15.43;49.72;95672.97;5012086;28;20448;-69
2021/09/25 06:43:55;;;;;;;12.93;8.30;;;;;;;15.61;49.74;95670.56;5012178;28;20488;-66
2021/09/25 06:46:22;;;;;;;15.37;8.50;;;;;;;15.54;48.92;95666.59;5013803;28;20840;-68
2021/09/25 06:48:49;;;;;;;14.20;8.33;;;;;;;15.88;48.64;95670.22;5023422;28;20440;-71
2021/09/25 06:51:17;;;;;;;13.40;7.70;;;;;;;16.01;48.80;95670.44;5011899;28;20449;-68
2021/09/25 06:53:44;;;;;;;17.33;8.33;;;;;;;16.00;48.04;95652.22;5031686;28;20455;-69
2021/09/25 06:56:11;;;;;;;12.97;7.47;;;;;;;16.08;47.97;95659.56;5018723;28;21153;-70
2021/09/25 06:58:38;;;;;;;14.67;7.53;;;;;;;16.04;49.01;95621.50;5010991;28;20464;-69
2021/09/25 07:01:05;;;;;;;19.77;7.67;;;;;;;16.44;48.99;95653.03;5001600;28;20449;-69
2021/09/25 07:03:32;;;;;;;11.00;8.20;;;;;;;16.57;47.24;95651.69;4994470;28;21021;-69
2021/09/25 07:06:00;;;;;;;13.07;8.50;;;;;;;16.41;47.27;95650.94;5011223;28;20444;-69
2021/09/25 07:08:27;;;;;;;12.13;7.87;;;;;;;16.70;47.47;95651.06;5011901;28;20472;-67
2021/09/25 07:10:53;;;;;;;17.53;7.57;;;;;;;16.41;47.14;95643.00;5011429;28;20970;-70
2021/09/25 07:13:21;;;;;;;11.33;7.70;;;;;;;16.62;47.08;95652.47;5011354;28;20441;-71
2021/09/25 07:15:48;;;;;;;15.17;7.27;;;;;;;16.99;47.27;95639.47;5011890;28;20575;-70
2021/09/25 07:18:16;;;;;;;13.40;7.50;;;;;;;17.20;47.40;95656.78;5011310;28;20872;-70
2021/09/25 07:20:43;;;;;;;18.47;8.13;;;;;;;17.44;47.63;95656.03;5011759;28;20503;-71
2021/09/25 07:23:10;;;;;;;12.90;8.03;;;;;;;17.72;46.99;95647.28;5010620;28;20485;-70
2021/09/25 07:25:39;;;;;;;16.10;7.97;;;;;;;17.98;46.52;95651.25;5011476;28;20449;-67
2021/09/25 07:28:07;;;;;;;16.17;8.57;;;;;;;18.08;47.03;95659.09;5010938;28;20446;-71
2021/09/25 07:30:37;;;;;;;11.07;7.23;;;;;;;18.17;45.92;95666.13;5023730;28;20827;-71
2021/09/25 07:33:05;;;;;;;18.27;7.80;;;;;;;18.37;45.61;95659.81;5011515;28;21016;-68
2021/09/25 07:35:34;;;;;;;14.10;6.87;;;;;;;18.62;45.79;95651.53;5012080;28;20441;-69
2021/09/25 07:38:06;;;;;;;10.90;6.33;;;;;;;18.75;45.54;95655.31;5011088;28;20451;-71
2021/09/25 07:40:33;;;;;;;18.53;7.13;;;;;;;18.86;47.41;95652.25;5011301;28;20201;-72
2021/09/25 07:43:01;;;;;;;11.00;6.70;;;;;;;19.13;46.57;95652.34;5010227;28;20460;-70
2021/09/25 07:45:29;;;;;;;13.07;7.13;;;;;;;19.38;46.11;95655.69;5020087;28;20280;-71
2021/09/25 07:47:56;;;;;;;11.77;6.87;;;;;;;19.41;44.40;95650.59;5015040;28;20441;-71
2021/09/25 07:50:24;;;;;;;11.10;6.27;;;;;;;19.48;43.62;95642.22;5010970;28;20225;-69
2021/09/25 07:52:55;;;;;;;8.90;6.60;;;;;;;19.68;43.96;95647.19;5010444;28;20205;-72
2021/09/25 07:55:24;;;;;;;9.17;5.93;;;;;;;19.79;43.86;95645.91;5010880;28;20194;-69
2021/09/25 07:57:52;;;;;;;12.30;5.90;;;;;;;19.94;43.34;95653.59;5010181;28;20295;-68
2021/09/25 08:00:19;;;;;;;10.97;6.20;;;;;;;20.22;44.33;95641.88;5006684;28;20205;-67
2021/09/25 08:02:46;;;;;;;6.97;5.50;;;;;;;20.16;42.67;95648.38;5001148;28;20227;-69
2021/09/25 08:05:13;;;;;;;8.83;5.53;;;;;;;20.04;42.54;95618.81;4995056;28;20198;-68
2021/09/25 08:07:41;;;;;;;8.97;5.97;;;;;;;20.34;42.34;95639.53;5010073;28;20198;-70
2021/09/25 08:10:09;;;;;;;10.47;5.37;;;;;;;20.47;42.39;95645.91;5010610;28;20208;-69
2021/09/25 08:12:37;;;;;;;7.57;5.13;;;;;;;20.34;42.27;95634.19;5010308;28;20252;-73
2021/09/25 08:15:05;;;;;;;7.33;5.07;;;;;;;20.43;42.17;95631.59;5021183;28;20205;-68
2021/09/25 08:17:32;;;;;;;5.97;4.80;;;;;;;20.67;42.43;95630.28;5012940;28;21026;-69
2021/09/25 08:19:59;;;;;;;6.53;4.40;;;;;;;20.52;42.10;95633.28;5019057;28;20204;-70
2021/09/25 08:22:26;;;;;;;7.27;4.87;;;;;;;20.77;42.98;95627.38;5018228;28;20690;-70
2021/09/25 08:24:53;;;;;;;8.70;4.30;;;;;;;20.87;42.05;95637.81;5016109;28;20220;-70
2021/09/25 08:27:20;;;;;;;8.33;4.50;;;;;;;20.94;41.72;95630.19;5013843;28;20276;-67
2021/09/25 08:29:46;;;;;;;4.63;4.17;;;;;;;20.88;41.30;95634.03;5026565;28;20201;-68
2021/09/25 08:32:13;;;;;;;6.50;4.90;;;;;;;20.96;40.87;95633.34;5013393;28;20571;-69
2021/09/25 08:34:40;;;;;;;5.77;3.80;;;;;;;21.23;42.36;95620.97;5014696;28;20201;-72
2021/09/25 08:37:07;;;;;;;7.10;4.13;;;;;;;21.39;41.03;95627.50;5010295;28;20198;-68
2021/09/25 08:39:34;;;;;;;5.10;3.90;;;;;;;21.49;40.78;95616.59;5010198;28;20340;-69
2021/09/25 08:42:01;;;;;;;5.03;3.80;;;;;;;21.79;40.59;95621.16;5010142;28;20404;-70
2021/09/25 08:44:30;;;;;;;4.73;4.20;;;;;;;21.81;40.00;95613.63;5010395;28;20690;-71
2021/09/25 08:46:57;;;;;;;7.40;4.47;;;;;;;21.79;40.32;95626.47;5010073;28;20269;-71
2021/09/25 08:49:24;;;;;;;4.70;4.10;;;;;;;21.91;42.01;95613.38;5010315;28;20190;-67
2021/09/25 08:51:51;;;;;;;5.63;4.47;;;;;;;21.90;40.38;95622.44;5009715;28;20229;-68
2021/09/25 08:54:18;;;;;;;7.13;4.23;;;;;;;22.05;40.78;95624.69;5010086;28;20211;-72
2021/09/25 08:56:45;;;;;;;6.20;4.50;;;;;;;22.26;40.44;95625.72;5009121;28;20835;-72
2021/09/25 08:59:12;;;;;;;8.40;4.20;;;;;;;22.34;38.93;95621.47;5010364;28;20205;-70
2021/09/25 09:01:42;;;;;;;10.60;4.23;;;;;;;22.54;39.17;95620.88;4994534;28;20206;-72
2021/09/25 09:04:11;;;;;;;5.57;3.90;;;;;;;22.45;38.47;95618.19;4998259;28;20224;-71
2021/09/25 09:06:38;;;;;;;6.93;4.20;;;;;;;22.65;39.04;95606.13;5009659;28;20216;-71
2021/09/25 09:09:09;;;;;;;8.63;3.97;;;;;;;22.73;38.19;95614.19;5009574;28;20256;-68
2021/09/25 09:11:44;;;;;;;5.07;3.80;;;;;;;23.09;37.74;95606.63;5009541;28;20190;-70
2021/09/25 09:14:16;;;;;;;7.03;4.17;;;;;;;23.13;37.65;95615.56;5024193;28;20193;-70
2021/09/25 09:16:55;;;;;;;9.87;4.53;;;;;;;23.59;37.77;95614.09;5009318;28;20274;-69
2021/09/25 09:19:22;;;;;;;9.20;4.23;;;;;;;23.48;36.62;95602.16;5010041;28;20255;-67
2021/09/25 09:21:50;;;;;;;5.20;4.00;;;;;;;22.92;36.31;95617.31;5010782;28;20201;-68
2021/09/25 09:24:17;;;;;;;7.07;4.20;;;;;;;23.39;37.03;95614.78;5013498;28;20616;-69
2021/09/25 09:26:45;;;;;;;5.97;4.23;;;;;;;23.40;35.84;95619.00;5013270;28;20194;-69
2021/09/25 09:29:16;;;;;;;5.10;4.00;;;;;;;22.56;36.90;95622.19;5014759;28;20229;-69
2021/09/25 09:31:43;;;;;;;5.50;3.80;;;;;;;22.53;36.52;95620.09;5016376;28;20189;-66
2021/09/25 09:34:10;;;;;;;6.50;4.07;;;;;;;22.65;36.88;95606.94;5016707;28;20209;-69
2021/09/25 09:36:42;;;;;;;5.93;4.07;;;;;;;23.25;35.99;95616.81;5013816;28;20691;-67
2021/09/25 09:39:17;;;;;;;5.87;4.10;;;;;;;23.67;37.07;95605.22;5013316;28;20197;-69
2021/09/25 09:41:46;;;;;;;7.90;4.10;;;;;;;23.96;35.74;95610.63;5013436;28;20193;-69
2021/09/25 09:44:15;;;;;;;4.87;4.00;;;;;;;23.99;34.56;95608.09;5013288;28;20221;-70
2021/09/25 09:46:49;;;;;;;4.07;3.63;;;;;;;23.88;34.07;95606.09;5012514;28;20198;-70
2021/09/25 09:49:22;;;;;;;5.27;3.70;;;;;;;24.20;35.57;95610.06;5013042;28;20279;-71
2021/09/25 09:51:53;;;;;;;6.07;3.47;;;;;;;24.19;34.12;95606.63;5012708;28;20229;-68
2021/09/25 09:54:25;;;;;;;4.87;3.40;;;;;;;24.62;34.09;95615.16;5013137;28;20221;-69
2021/09/25 09:57:10;;;;;;;5.63;3.90;;;;;;;24.68;33.67;95618.41;5011926;28;20190;-68
2021/09/25 09:59:40;;;;;;;4.20;3.70;;;;;;;24.88;34.12;95615.00;5012699;28;20194;-68
2021/09/25 10:02:08;;;;;;;3.77;2.90;;;;;;;24.76;32.86;95615.69;4999761;28;20714;-71
2021/09/25 10:04:37;;;;;;;3.80;3.30;;;;;;;24.87;33.26;95616.88;5012996;28;20332;-71
2021/09/25 10:07:05;;;;;;;9.07;3.80;;;;;;;24.87;33.56;95594.66;5026209;28;20196;-69
2021/09/25 10:09:35;;;;;;;10.43;3.73;;;;;;;25.16;32.21;95601.81;5013021;28;20624;-73
2021/09/25 10:12:06;;;;;;;6.17;3.23;;;;;;;24.75;31.99;95602.63;5012566;28;20232;-71
2021/09/25 10:14:36;;;;;;;3.80;3.30;;;;;;;25.15;33.16;95605.59;4999582;28;20525;-69
2021/09/25 10:17:06;;;;;;;5.80;3.73;;;;;;;25.26;32.53;95609.44;5012992;28;20201;-70
2021/09/25 10:19:34;;;;;;;4.43;3.40;;;;;;;24.74;32.72;95601.84;5012771;28;20200;-70
2021/09/25 10:22:11;;;;;;;8.47;3.83;;;;;;;25.18;33.63;95604.94;5012593;28;20296;-67
2021/09/25 10:24:45;;;;;;;5.00;3.73;;;;;;;25.27;33.64;95597.59;5029900;28;20209;-67
2021/09/25 10:27:14;;;;;;;8.20;3.67;;;;;;;25.62;32.88;95594.25;5016157;28;20267;-70
2021/09/25 10:29:46;;;;;;;9.23;3.87;;;;;;;25.91;33.29;95590.59;5015388;28;20198;-68
2021/09/25 10:32:31;;;;;;;6.17;3.97;;;;;;;25.90;32.33;95583.66;5015395;28;20190;-68
2021/09/25 10:35:04;;;;;;;5.23;3.63;;;;;;;26.02;32.20;95594.41;4998560;28;20201;-70
2021/09/25 10:37:49;;;;;;;6.37;3.47;;;;;;;25.67;31.74;95587.88;5012083;28;21048;-70
2021/09/25 10:40:39;;;;;;;5.00;3.47;;;;;;;25.51;31.65;95581.59;5003110;28;20279;-66
2021/09/25 10:43:19;;;;;;;7.93;3.63;;;;;;;25.39;31.52;95581.56;5026067;28;20210;-69
2021/09/25 10:45:52;;;;;;;6.47;3.40;;;;;;;25.34;31.98;95581.75;5012351;28;20241;-71
2021/09/25 10:48:19;;;;;;;4.27;3.37;;;;;;;25.05;32.44;95590.72;5011607;28;20194;-68
2021/09/25 10:50:49;;;;;;;4.43;3.23;;;;;;;25.17;31.74;95576.53;5012125;28;20194;-69
2021/09/25 10:53:24;;;;;;;3.93;3.20;;;;;;;25.41;32.10;95571.28;5011897;28;20232;-70
2021/09/25 10:55:54;;;;;;;6.77;3.47;;;;;;;25.34;32.32;95576.38;5011538;28;20228;-67
2021/09/25 10:58:24;;;;;;;4.00;3.30;;;;;;;25.63;31.61;95573.56;5011324;28;20233;-68
2021/09/25 11:01:05;;;;;;;4.80;3.33;;;;;;;25.85;33.00;95571.25;5003738;28;20198;-68
2021/09/25 11:03:42;;;;;;;9.50;3.73;;;;;;;26.15;32.87;95568.34;5005754;28;20230;-67
2021/09/25 11:06:12;;;;;;;3.93;2.90;;;;;;;26.22;31.28;95568.56;5001980;28;20221;-69
2021/09/25 11:08:48;;;;;;;4.13;3.33;;;;;;;26.28;31.28;95562.59;5011667;28;20204;-68
2021/09/25 11:11:17;;;;;;;5.17;3.57;;;;;;;26.04;31.09;95554.56;5011278;28;20201;-69
2021/09/25 11:14:05;;;;;;;7.30;3.60;;;;;;;26.29;30.93;95566.88;5011812;28;20198;-68
2021/09/25 11:17:02;;;;;;;3.90;3.50;;;;;;;26.51;31.79;95555.63;5011266;28;20205;-69
2021/09/25 11:19:33;;;;;;;5.27;3.70;;;;;;;26.96;30.49;95561.56;5011522;28;20189;-66
2021/09/25 11:22:14;;;;;;;4.97;3.80;;;;;;;27.13;31.30;95554.31;5010910;28;20201;-70
2021/09/25 11:25:02;;;;;;;6.57;3.70;;;;;;;27.38;30.40;95551.19;5011109;28;20574;-69
2021/09/25 11:27:34;;;;;;;4.17;3.23;;;;;;;27.62;30.21;95545.63;5010690;28;20229;-72
2021/09/25 11:30:11;;;;;;;5.97;3.67;;;;;;;27.51;29.84;95535.72;5011557;28;20633;-70
2021/09/25 11:32:48;;;;;;;4.30;3.57;;;;;;;27.30;29.64;95543.25;5010959;28;20293;-66
2021/09/25 11:35:19;;;;;;;3.93;3.53;;;;;;;26.70;29.96;95539.69;5011516;28;20201;-70